sensor_id;sensor_type;location;lat;lon;timestamp;P1;durP1;ratioP1;P2;durP2;ratioP2
579;SDS011;276;48.392;9.950;2022-11-06T00:00:49;10.80;;;9.80;;
579;SDS011;276;48.392;9.950;2022-11-06T00:03:20;10.97;;;9.87;;
579;SDS011;276;48.392;9.950;2022-11-06T00:05:45;11.00;;;10.00;;
579;SDS011;276;48.392;9.950;2022-11-06T00:08:36;11.40;;;10.30;;
579;SDS011;276;48.392;9.950;2022-11-06T00:11:09;11.40;;;10.40;;
579;SDS011;276;48.392;9.950;2022-11-06T00:13:38;8.93;;;8.10;;
579;SDS011;276;48.392;9.950;2022-11-06T00:16:08;8.90;;;8.10;;
579;SDS011;276;48.392;9.950;2022-11-06T00:18:35;10.60;;;8.00;;
579;SDS011;276;48.392;9.950;2022-11-06T00:21:05;8.90;;;8.10;;
579;SDS011;276;48.392;9.950;2022-11-06T00:23:31;9.13;;;8.20;;
579;SDS011;276;48.392;9.950;2022-11-06T00:26:08;9.30;;;8.50;;
579;SDS011;276;48.392;9.950;2022-11-06T00:28:35;9.63;;;8.83;;
579;SDS011;276;48.392;9.950;2022-11-06T00:31:04;9.73;;;8.73;;
579;SDS011;276;48.392;9.950;2022-11-06T00:33:34;9.30;;;8.40;;
579;SDS011;276;48.392;9.950;2022-11-06T00:36:04;10.73;;;9.77;;
579;SDS011;276;48.392;9.950;2022-11-06T00:38:33;9.33;;;8.53;;
579;SDS011;276;48.392;9.950;2022-11-06T00:41:02;9.77;;;8.63;;
579;SDS011;276;48.392;9.950;2022-11-06T00:43:31;9.07;;;8.17;;
579;SDS011;276;48.392;9.950;2022-11-06T00:46:05;9.43;;;8.63;;
579;SDS011;276;48.392;9.950;2022-11-06T00:48:35;12.63;;;9.57;;
579;SDS011;276;48.392;9.950;2022-11-06T00:51:05;9.73;;;8.83;;
579;SDS011;276;48.392;9.950;2022-11-06T00:53:42;8.07;;;7.27;;
579;SDS011;276;48.392;9.950;2022-11-06T00:56:15;8.73;;;7.87;;
579;SDS011;276;48.392;9.950;2022-11-06T00:58:46;11.27;;;8.30;;
579;SDS011;276;48.392;9.950;2022-11-06T01:01:21;8.40;;;6.93;;
579;SDS011;276;48.392;9.950;2022-11-06T01:03:52;8.13;;;7.40;;
579;SDS011;276;48.392;9.950;2022-11-06T01:06:23;9.57;;;8.77;;
579;SDS011;276;48.392;9.950;2022-11-06T01:08:51;7.53;;;6.83;;
579;SDS011;276;48.392;9.950;2022-11-06T01:13:49;9.47;;;8.10;;
579;SDS011;276;48.392;9.950;2022-11-06T01:16:16;9.10;;;8.10;;
579;SDS011;276;48.392;9.950;2022-11-06T01:18:43;11.53;;;10.13;;
579;SDS011;276;48.392;9.950;2022-11-06T01:21:10;10.53;;;9.43;;
579;SDS011;276;48.392;9.950;2022-11-06T01:23:38;11.23;;;9.10;;
579;SDS011;276;48.392;9.950;2022-11-06T01:26:04;13.43;;;9.40;;
579;SDS011;276;48.392;9.950;2022-11-06T01:28:32;13.23;;;10.30;;
579;SDS011;276;48.392;9.950;2022-11-06T01:31:05;14.07;;;11.03;;
579;SDS011;276;48.392;9.950;2022-11-06T01:33:33;11.77;;;10.27;;
579;SDS011;276;48.392;9.950;2022-11-06T01:35:58;13.70;;;9.30;;
579;SDS011;276;48.392;9.950;2022-11-06T01:38:27;16.10;;;12.13;;
579;SDS011;276;48.392;9.950;2022-11-06T01:40:52;13.03;;;9.97;;
579;SDS011;276;48.392;9.950;2022-11-06T01:43:22;13.17;;;9.83;;
579;SDS011;276;48.392;9.950;2022-11-06T01:45:51;9.83;;;8.50;;
579;SDS011;276;48.392;9.950;2022-11-06T01:48:23;10.53;;;8.13;;
579;SDS011;276;48.392;9.950;2022-11-06T01:50:53;11.07;;;9.07;;
579;SDS011;276;48.392;9.950;2022-11-06T01:53:22;12.00;;;9.43;;
579;SDS011;276;48.392;9.950;2022-11-06T01:55:52;12.43;;;8.80;;
579;SDS011;276;48.392;9.950;2022-11-06T01:58:26;14.60;;;10.23;;
579;SDS011;276;48.392;9.950;2022-11-06T02:00:54;9.57;;;8.60;;
579;SDS011;276;48.392;9.950;2022-11-06T02:03:20;16.27;;;11.80;;
579;SDS011;276;48.392;9.950;2022-11-06T02:05:52;9.60;;;8.60;;
579;SDS011;276;48.392;9.950;2022-11-06T02:08:20;9.87;;;8.83;;
579;SDS011;276;48.392;9.950;2022-11-06T02:10:49;12.40;;;10.23;;
579;SDS011;276;48.392;9.950;2022-11-06T02:13:40;12.73;;;8.30;;
579;SDS011;276;48.392;9.950;2022-11-06T02:19:29;14.23;;;9.37;;
579;SDS011;276;48.392;9.950;2022-11-06T02:27:40;10.20;;;8.27;;
579;SDS011;276;48.392;9.950;2022-11-06T02:30:11;10.83;;;9.03;;
579;SDS011;276;48.392;9.950;2022-11-06T02:32:47;11.60;;;8.93;;
579;SDS011;276;48.392;9.950;2022-11-06T02:38:02;9.40;;;8.30;;
579;SDS011;276;48.392;9.950;2022-11-06T02:40:33;11.40;;;9.90;;
579;SDS011;276;48.392;9.950;2022-11-06T02:43:06;12.90;;;10.10;;
579;SDS011;276;48.392;9.950;2022-11-06T02:45:35;12.67;;;10.27;;
579;SDS011;276;48.392;9.950;2022-11-06T02:48:06;9.83;;;8.80;;
579;SDS011;276;48.392;9.950;2022-11-06T02:50:39;10.70;;;9.57;;
579;SDS011;276;48.392;9.950;2022-11-06T02:53:12;11.33;;;10.20;;
579;SDS011;276;48.392;9.950;2022-11-06T02:55:40;10.83;;;8.93;;
579;SDS011;276;48.392;9.950;2022-11-06T02:58:16;9.17;;;8.37;;
579;SDS011;276;48.392;9.950;2022-11-06T03:00:51;9.87;;;8.80;;
579;SDS011;276;48.392;9.950;2022-11-06T03:03:32;9.20;;;8.30;;
579;SDS011;276;48.392;9.950;2022-11-06T03:06:11;10.47;;;9.23;;
579;SDS011;276;48.392;9.950;2022-11-06T03:08:43;12.77;;;11.57;;
579;SDS011;276;48.392;9.950;2022-11-06T03:11:26;9.80;;;8.80;;
579;SDS011;276;48.392;9.950;2022-11-06T03:14:17;10.37;;;9.33;;
579;SDS011;276;48.392;9.950;2022-11-06T03:19:20;11.23;;;10.00;;
579;SDS011;276;48.392;9.950;2022-11-06T03:27:37;10.70;;;9.63;;
579;SDS011;276;48.392;9.950;2022-11-06T03:30:13;9.87;;;8.87;;
579;SDS011;276;48.392;9.950;2022-11-06T03:35:21;12.00;;;9.70;;
579;SDS011;276;48.392;9.950;2022-11-06T03:40:39;11.47;;;8.97;;
579;SDS011;276;48.392;9.950;2022-11-06T03:43:09;10.60;;;9.60;;
579;SDS011;276;48.392;9.950;2022-11-06T03:45:39;12.13;;;10.17;;
579;SDS011;276;48.392;9.950;2022-11-06T03:48:08;9.97;;;8.67;;
579;SDS011;276;48.392;9.950;2022-11-06T03:53:50;10.73;;;9.63;;
579;SDS011;276;48.392;9.950;2022-11-06T03:56:22;9.83;;;8.83;;
579;SDS011;276;48.392;9.950;2022-11-06T03:58:53;8.50;;;7.80;;
579;SDS011;276;48.392;9.950;2022-11-06T04:01:22;9.90;;;8.90;;
579;SDS011;276;48.392;9.950;2022-11-06T04:03:57;9.63;;;8.80;;
579;SDS011;276;48.392;9.950;2022-11-06T04:06:34;8.83;;;8.03;;
579;SDS011;276;48.392;9.950;2022-11-06T04:09:05;8.67;;;7.87;;
579;SDS011;276;48.392;9.950;2022-11-06T04:11:55;8.90;;;8.00;;
579;SDS011;276;48.392;9.950;2022-11-06T04:14:43;8.40;;;7.60;;
579;SDS011;276;48.392;9.950;2022-11-06T04:17:12;8.40;;;7.70;;
579;SDS011;276;48.392;9.950;2022-11-06T04:19:42;8.83;;;8.00;;
579;SDS011;276;48.392;9.950;2022-11-06T04:30:39;8.37;;;7.57;;
579;SDS011;276;48.392;9.950;2022-11-06T04:33:19;9.13;;;8.33;;
579;SDS011;276;48.392;9.950;2022-11-06T04:44:25;8.30;;;7.50;;
579;SDS011;276;48.392;9.950;2022-11-06T04:47:19;9.00;;;8.10;;
579;SDS011;276;48.392;9.950;2022-11-06T04:49:47;9.23;;;8.33;;
579;SDS011;276;48.392;9.950;2022-11-06T04:52:16;10.77;;;9.67;;
579;SDS011;276;48.392;9.950;2022-11-06T04:54:44;8.77;;;7.87;;
579;SDS011;276;48.392;9.950;2022-11-06T04:57:13;10.20;;;8.47;;
579;SDS011;276;48.392;9.950;2022-11-06T04:59:39;9.80;;;8.90;;
579;SDS011;276;48.392;9.950;2022-11-06T05:02:07;8.20;;;7.40;;
579;SDS011;276;48.392;9.950;2022-11-06T05:04:37;8.87;;;7.90;;
579;SDS011;276;48.392;9.950;2022-11-06T05:07:05;11.10;;;9.20;;
579;SDS011;276;48.392;9.950;2022-11-06T05:09:31;10.00;;;8.67;;
579;SDS011;276;48.392;9.950;2022-11-06T05:12:01;9.63;;;8.30;;
579;SDS011;276;48.392;9.950;2022-11-06T05:14:27;8.57;;;7.53;;
579;SDS011;276;48.392;9.950;2022-11-06T05:16:56;8.87;;;7.97;;
579;SDS011;276;48.392;9.950;2022-11-06T05:19:24;10.40;;;8.20;;
579;SDS011;276;48.392;9.950;2022-11-06T05:21:52;9.10;;;7.40;;
579;SDS011;276;48.392;9.950;2022-11-06T05:24:37;10.27;;;8.17;;
579;SDS011;276;48.392;9.950;2022-11-06T05:27:04;7.57;;;6.87;;
579;SDS011;276;48.392;9.950;2022-11-06T05:29:35;9.03;;;7.93;;
579;SDS011;276;48.392;9.950;2022-11-06T05:32:05;7.60;;;6.90;;
579;SDS011;276;48.392;9.950;2022-11-06T05:34:30;8.33;;;7.53;;
579;SDS011;276;48.392;9.950;2022-11-06T05:36:58;8.67;;;7.60;;
579;SDS011;276;48.392;9.950;2022-11-06T05:39:26;7.73;;;7.03;;
579;SDS011;276;48.392;9.950;2022-11-06T05:41:51;9.00;;;7.17;;
579;SDS011;276;48.392;9.950;2022-11-06T05:44:17;7.20;;;6.50;;
579;SDS011;276;48.392;9.950;2022-11-06T05:46:45;9.30;;;7.90;;
579;SDS011;276;48.392;9.950;2022-11-06T05:49:13;8.30;;;7.50;;
579;SDS011;276;48.392;9.950;2022-11-06T05:51:41;8.77;;;7.90;;
579;SDS011;276;48.392;9.950;2022-11-06T05:54:09;7.93;;;7.13;;
579;SDS011;276;48.392;9.950;2022-11-06T05:56:37;8.90;;;7.70;;
579;SDS011;276;48.392;9.950;2022-11-06T05:59:02;8.13;;;7.23;;
579;SDS011;276;48.392;9.950;2022-11-06T06:01:28;8.53;;;7.70;;
579;SDS011;276;48.392;9.950;2022-11-06T06:03:54;8.77;;;7.83;;
579;SDS011;276;48.392;9.950;2022-11-06T06:06:20;10.07;;;9.10;;
579;SDS011;276;48.392;9.950;2022-11-06T06:08:48;7.30;;;6.60;;
579;SDS011;276;48.392;9.950;2022-11-06T06:11:16;9.20;;;7.50;;
579;SDS011;276;48.392;9.950;2022-11-06T06:13:41;8.33;;;7.53;;
579;SDS011;276;48.392;9.950;2022-11-06T06:16:07;7.43;;;6.73;;
579;SDS011;276;48.392;9.950;2022-11-06T06:18:32;8.90;;;8.00;;
579;SDS011;276;48.392;9.950;2022-11-06T06:20:58;8.50;;;7.23;;
579;SDS011;276;48.392;9.950;2022-11-06T06:23:24;8.30;;;7.33;;
579;SDS011;276;48.392;9.950;2022-11-06T06:25:52;9.63;;;6.60;;
579;SDS011;276;48.392;9.950;2022-11-06T06:28:20;8.70;;;7.80;;
579;SDS011;276;48.392;9.950;2022-11-06T06:30:48;9.53;;;8.60;;
579;SDS011;276;48.392;9.950;2022-11-06T06:33:16;7.40;;;6.70;;
579;SDS011;276;48.392;9.950;2022-11-06T06:35:42;9.70;;;8.70;;
579;SDS011;276;48.392;9.950;2022-11-06T06:38:12;10.20;;;8.60;;
579;SDS011;276;48.392;9.950;2022-11-06T06:40:40;8.07;;;7.27;;
579;SDS011;276;48.392;9.950;2022-11-06T06:43:05;11.00;;;8.10;;
579;SDS011;276;48.392;9.950;2022-11-06T06:45:31;9.63;;;8.63;;
579;SDS011;276;48.392;9.950;2022-11-06T06:48:03;9.37;;;7.93;;
579;SDS011;276;48.392;9.950;2022-11-06T06:50:29;12.30;;;10.17;;
579;SDS011;276;48.392;9.950;2022-11-06T06:52:59;9.17;;;8.27;;
579;SDS011;276;48.392;9.950;2022-11-06T06:55:25;10.20;;;9.20;;
579;SDS011;276;48.392;9.950;2022-11-06T06:57:54;10.37;;;9.40;;
579;SDS011;276;48.392;9.950;2022-11-06T07:00:26;8.57;;;7.70;;
579;SDS011;276;48.392;9.950;2022-11-06T07:02:57;10.93;;;8.50;;
579;SDS011;276;48.392;9.950;2022-11-06T07:05:22;8.60;;;7.80;;
579;SDS011;276;48.392;9.950;2022-11-06T07:07:48;9.37;;;8.37;;
579;SDS011;276;48.392;9.950;2022-11-06T07:10:16;9.90;;;8.90;;
579;SDS011;276;48.392;9.950;2022-11-06T07:12:42;11.17;;;9.07;;
579;SDS011;276;48.392;9.950;2022-11-06T07:15:08;8.67;;;7.77;;
579;SDS011;276;48.392;9.950;2022-11-06T07:17:36;10.17;;;7.73;;
579;SDS011;276;48.392;9.950;2022-11-06T07:20:02;8.30;;;7.50;;
579;SDS011;276;48.392;9.950;2022-11-06T07:22:30;10.40;;;8.13;;
579;SDS011;276;48.392;9.950;2022-11-06T07:24:59;8.93;;;8.13;;
579;SDS011;276;48.392;9.950;2022-11-06T07:27:26;8.53;;;7.73;;
579;SDS011;276;48.392;9.950;2022-11-06T07:29:53;9.13;;;8.33;;
579;SDS011;276;48.392;9.950;2022-11-06T07:32:18;8.60;;;7.80;;
579;SDS011;276;48.392;9.950;2022-11-06T07:34:46;8.30;;;7.50;;
579;SDS011;276;48.392;9.950;2022-11-06T07:37:12;8.80;;;7.90;;
579;SDS011;276;48.392;9.950;2022-11-06T07:39:38;9.33;;;8.43;;
579;SDS011;276;48.392;9.950;2022-11-06T07:42:03;9.33;;;8.20;;
579;SDS011;276;48.392;9.950;2022-11-06T07:44:29;11.90;;;9.20;;
579;SDS011;276;48.392;9.950;2022-11-06T07:46:57;11.90;;;8.27;;
579;SDS011;276;48.392;9.950;2022-11-06T07:49:25;10.17;;;9.13;;
579;SDS011;276;48.392;9.950;2022-11-06T07:51:50;15.50;;;11.70;;
579;SDS011;276;48.392;9.950;2022-11-06T07:54:21;13.33;;;9.53;;
579;SDS011;276;48.392;9.950;2022-11-06T07:56:46;12.43;;;10.07;;
579;SDS011;276;48.392;9.950;2022-11-06T07:59:14;14.80;;;10.40;;
579;SDS011;276;48.392;9.950;2022-11-06T08:01:40;11.33;;;9.10;;
579;SDS011;276;48.392;9.950;2022-11-06T08:04:08;12.93;;;11.70;;
579;SDS011;276;48.392;9.950;2022-11-06T08:06:36;16.33;;;12.07;;
579;SDS011;276;48.392;9.950;2022-11-06T08:09:07;16.40;;;11.10;;
579;SDS011;276;48.392;9.950;2022-11-06T08:11:32;17.07;;;11.70;;
579;SDS011;276;48.392;9.950;2022-11-06T08:14:03;14.07;;;12.30;;
579;SDS011;276;48.392;9.950;2022-11-06T08:16:30;16.97;;;12.73;;
579;SDS011;276;48.392;9.950;2022-11-06T08:18:57;12.73;;;11.53;;
579;SDS011;276;48.392;9.950;2022-11-06T08:21:22;10.87;;;9.77;;
579;SDS011;276;48.392;9.950;2022-11-06T08:23:48;10.47;;;9.30;;
579;SDS011;276;48.392;9.950;2022-11-06T08:26:16;8.20;;;7.43;;
579;SDS011;276;48.392;9.950;2022-11-06T08:28:44;9.47;;;8.60;;
579;SDS011;276;48.392;9.950;2022-11-06T08:31:09;9.30;;;8.47;;
579;SDS011;276;48.392;9.950;2022-11-06T08:33:36;7.50;;;6.80;;
579;SDS011;276;48.392;9.950;2022-11-06T08:36:03;10.53;;;9.63;;
579;SDS011;276;48.392;9.950;2022-11-06T08:38:29;9.50;;;8.60;;
579;SDS011;276;48.392;9.950;2022-11-06T08:40:57;11.03;;;9.53;;
579;SDS011;276;48.392;9.950;2022-11-06T08:43:32;9.53;;;8.50;;
579;SDS011;276;48.392;9.950;2022-11-06T08:45:58;10.87;;;9.13;;
579;SDS011;276;48.392;9.950;2022-11-06T08:48:28;11.90;;;9.20;;
579;SDS011;276;48.392;9.950;2022-11-06T08:50:58;13.10;;;9.20;;
579;SDS011;276;48.392;9.950;2022-11-06T08:53:23;12.47;;;10.40;;
579;SDS011;276;48.392;9.950;2022-11-06T08:55:49;16.87;;;12.70;;
579;SDS011;276;48.392;9.950;2022-11-06T08:58:15;9.50;;;8.50;;
579;SDS011;276;48.392;9.950;2022-11-06T09:00:43;9.80;;;8.77;;
579;SDS011;276;48.392;9.950;2022-11-06T09:03:12;9.07;;;8.27;;
579;SDS011;276;48.392;9.950;2022-11-06T09:05:42;10.33;;;9.37;;
579;SDS011;276;48.392;9.950;2022-11-06T09:08:08;8.23;;;7.60;;
579;SDS011;276;48.392;9.950;2022-11-06T09:10:38;9.43;;;8.53;;
579;SDS011;276;48.392;9.950;2022-11-06T09:13:09;9.37;;;8.40;;
579;SDS011;276;48.392;9.950;2022-11-06T09:15:40;8.17;;;7.47;;
579;SDS011;276;48.392;9.950;2022-11-06T09:18:08;8.20;;;7.50;;
579;SDS011;276;48.392;9.950;2022-11-06T09:20:35;8.63;;;7.83;;
579;SDS011;276;48.392;9.950;2022-11-06T09:23:01;9.80;;;8.90;;
579;SDS011;276;48.392;9.950;2022-11-06T09:25:29;9.93;;;9.03;;
579;SDS011;276;48.392;9.950;2022-11-06T09:27:58;8.80;;;8.10;;
579;SDS011;276;48.392;9.950;2022-11-06T09:30:27;9.90;;;9.10;;
579;SDS011;276;48.392;9.950;2022-11-06T09:32:57;9.50;;;8.60;;
579;SDS011;276;48.392;9.950;2022-11-06T09:35:25;13.20;;;10.67;;
579;SDS011;276;48.392;9.950;2022-11-06T09:37:54;9.10;;;8.30;;
579;SDS011;276;48.392;9.950;2022-11-06T09:40:46;7.77;;;7.07;;
579;SDS011;276;48.392;9.950;2022-11-06T09:52:09;9.10;;;8.20;;
579;SDS011;276;48.392;9.950;2022-11-06T09:54:42;8.27;;;7.57;;
579;SDS011;276;48.392;9.950;2022-11-06T09:57:17;9.10;;;8.23;;
579;SDS011;276;48.392;9.950;2022-11-06T09:59:48;8.93;;;8.13;;
579;SDS011;276;48.392;9.950;2022-11-06T10:05:05;7.37;;;6.77;;
579;SDS011;276;48.392;9.950;2022-11-06T10:07:35;7.47;;;6.87;;
579;SDS011;276;48.392;9.950;2022-11-06T10:10:05;8.37;;;7.57;;
579;SDS011;276;48.392;9.950;2022-11-06T10:12:51;8.47;;;7.67;;
579;SDS011;276;48.392;9.950;2022-11-06T10:15:23;8.20;;;7.40;;
579;SDS011;276;48.392;9.950;2022-11-06T10:18:11;9.63;;;8.73;;
579;SDS011;276;48.392;9.950;2022-11-06T10:20:53;11.73;;;10.33;;
579;SDS011;276;48.392;9.950;2022-11-06T10:26:13;11.90;;;9.23;;
579;SDS011;276;48.392;9.950;2022-11-06T10:33:49;8.13;;;7.43;;
579;SDS011;276;48.392;9.950;2022-11-06T10:36:41;9.10;;;8.30;;
579;SDS011;276;48.392;9.950;2022-11-06T10:39:33;9.00;;;8.30;;
579;SDS011;276;48.392;9.950;2022-11-06T10:42:10;9.03;;;8.13;;
579;SDS011;276;48.392;9.950;2022-11-06T10:44:49;9.60;;;8.70;;
579;SDS011;276;48.392;9.950;2022-11-06T10:47:29;9.90;;;9.00;;
579;SDS011;276;48.392;9.950;2022-11-06T10:50:16;9.87;;;8.90;;
579;SDS011;276;48.392;9.950;2022-11-06T10:58:20;8.80;;;7.90;;
579;SDS011;276;48.392;9.950;2022-11-06T11:00:50;6.80;;;6.23;;
579;SDS011;276;48.392;9.950;2022-11-06T11:03:21;9.67;;;8.87;;
579;SDS011;276;48.392;9.950;2022-11-06T11:05:51;8.00;;;7.40;;
579;SDS011;276;48.392;9.950;2022-11-06T11:08:30;7.90;;;7.30;;
579;SDS011;276;48.392;9.950;2022-11-06T11:11:20;8.00;;;7.20;;
579;SDS011;276;48.392;9.950;2022-11-06T11:16:27;9.50;;;8.70;;
579;SDS011;276;48.392;9.950;2022-11-06T11:19:13;7.70;;;6.90;;
579;SDS011;276;48.392;9.950;2022-11-06T11:21:40;7.37;;;6.67;;
579;SDS011;276;48.392;9.950;2022-11-06T11:24:32;7.87;;;7.17;;
579;SDS011;276;48.392;9.950;2022-11-06T11:27:01;6.60;;;6.10;;
579;SDS011;276;48.392;9.950;2022-11-06T11:29:33;6.50;;;6.00;;
579;SDS011;276;48.392;9.950;2022-11-06T11:32:05;7.30;;;6.70;;
579;SDS011;276;48.392;9.950;2022-11-06T11:34:42;6.70;;;6.20;;
579;SDS011;276;48.392;9.950;2022-11-06T11:37:21;8.17;;;7.47;;
579;SDS011;276;48.392;9.950;2022-11-06T11:39:50;7.80;;;7.10;;
579;SDS011;276;48.392;9.950;2022-11-06T11:47:37;7.87;;;7.17;;
579;SDS011;276;48.392;9.950;2022-11-06T11:55:22;9.13;;;8.23;;
579;SDS011;276;48.392;9.950;2022-11-06T11:57:52;9.20;;;8.43;;
579;SDS011;276;48.392;9.950;2022-11-06T12:00:20;9.93;;;9.10;;
579;SDS011;276;48.392;9.950;2022-11-06T12:03:10;10.03;;;9.03;;
579;SDS011;276;48.392;9.950;2022-11-06T12:05:38;10.47;;;9.40;;
579;SDS011;276;48.392;9.950;2022-11-06T12:08:05;9.23;;;8.50;;
579;SDS011;276;48.392;9.950;2022-11-06T12:10:39;8.43;;;7.73;;
579;SDS011;276;48.392;9.950;2022-11-06T12:13:16;7.17;;;6.57;;
579;SDS011;276;48.392;9.950;2022-11-06T12:15:53;7.80;;;7.20;;
579;SDS011;276;48.392;9.950;2022-11-06T12:18:44;8.60;;;7.87;;
579;SDS011;276;48.392;9.950;2022-11-06T12:24:00;9.70;;;8.80;;
579;SDS011;276;48.392;9.950;2022-11-06T12:29:33;7.63;;;6.97;;
579;SDS011;276;48.392;9.950;2022-11-06T12:35:03;6.77;;;6.27;;
579;SDS011;276;48.392;9.950;2022-11-06T12:37:54;7.47;;;6.87;;
579;SDS011;276;48.392;9.950;2022-11-06T12:40:44;8.00;;;7.50;;
579;SDS011;276;48.392;9.950;2022-11-06T13:05:14;6.50;;;6.00;;
579;SDS011;276;48.392;9.950;2022-11-06T13:19:29;7.03;;;6.50;;
579;SDS011;276;48.392;9.950;2022-11-06T13:29:59;7.30;;;6.80;;
579;SDS011;276;48.392;9.950;2022-11-06T13:32:28;6.37;;;5.77;;
579;SDS011;276;48.392;9.950;2022-11-06T13:34:58;6.60;;;6.10;;
579;SDS011;276;48.392;9.950;2022-11-06T13:37:34;5.67;;;5.27;;
579;SDS011;276;48.392;9.950;2022-11-06T13:43:34;7.67;;;6.97;;
579;SDS011;276;48.392;9.950;2022-11-06T13:48:30;7.07;;;6.57;;
579;SDS011;276;48.392;9.950;2022-11-06T13:51:11;7.07;;;6.50;;
579;SDS011;276;48.392;9.950;2022-11-06T13:53:47;6.80;;;6.30;;
579;SDS011;276;48.392;9.950;2022-11-06T13:57:06;6.60;;;6.00;;
579;SDS011;276;48.392;9.950;2022-11-06T14:02:20;7.47;;;6.87;;
579;SDS011;276;48.392;9.950;2022-11-06T14:07:34;6.67;;;6.17;;
579;SDS011;276;48.392;9.950;2022-11-06T14:10:04;7.10;;;6.50;;
579;SDS011;276;48.392;9.950;2022-11-06T14:12:43;6.40;;;5.90;;
579;SDS011;276;48.392;9.950;2022-11-06T14:17:55;8.47;;;7.77;;
579;SDS011;276;48.392;9.950;2022-11-06T14:22:54;8.20;;;7.50;;
579;SDS011;276;48.392;9.950;2022-11-06T14:30:37;7.13;;;6.60;;
579;SDS011;276;48.392;9.950;2022-11-06T14:33:11;6.23;;;5.80;;
579;SDS011;276;48.392;9.950;2022-11-06T14:38:55;6.33;;;5.83;;
579;SDS011;276;48.392;9.950;2022-11-06T14:44:06;6.57;;;6.03;;
579;SDS011;276;48.392;9.950;2022-11-06T14:46:51;6.57;;;5.97;;
579;SDS011;276;48.392;9.950;2022-11-06T14:49:29;8.13;;;7.20;;
579;SDS011;276;48.392;9.950;2022-11-06T14:52:16;6.97;;;6.47;;
579;SDS011;276;48.392;9.950;2022-11-06T15:02:59;6.83;;;6.33;;
579;SDS011;276;48.392;9.950;2022-11-06T15:05:27;6.40;;;5.93;;
579;SDS011;276;48.392;9.950;2022-11-06T15:07:55;6.07;;;5.63;;
579;SDS011;276;48.392;9.950;2022-11-06T15:15:34;8.23;;;6.57;;
579;SDS011;276;48.392;9.950;2022-11-06T15:18:03;6.67;;;6.07;;
579;SDS011;276;48.392;9.950;2022-11-06T15:20:29;6.63;;;6.13;;
579;SDS011;276;48.392;9.950;2022-11-06T15:22:59;6.63;;;6.13;;
579;SDS011;276;48.392;9.950;2022-11-06T15:25:34;5.90;;;5.50;;
579;SDS011;276;48.392;9.950;2022-11-06T15:33:23;7.90;;;7.30;;
579;SDS011;276;48.392;9.950;2022-11-06T15:36:09;7.60;;;7.00;;
579;SDS011;276;48.392;9.950;2022-11-06T15:38:39;7.73;;;7.00;;
579;SDS011;276;48.392;9.950;2022-11-06T15:44:03;6.50;;;6.10;;
579;SDS011;276;48.392;9.950;2022-11-06T15:46:29;9.53;;;8.83;;
579;SDS011;276;48.392;9.950;2022-11-06T15:49:12;10.33;;;9.53;;
579;SDS011;276;48.392;9.950;2022-11-06T15:51:40;9.23;;;8.63;;
579;SDS011;276;48.392;9.950;2022-11-06T15:54:28;9.63;;;8.73;;
579;SDS011;276;48.392;9.950;2022-11-06T15:57:02;8.60;;;7.70;;
579;SDS011;276;48.392;9.950;2022-11-06T15:59:30;8.93;;;8.23;;
579;SDS011;276;48.392;9.950;2022-11-06T16:01:55;10.10;;;9.30;;
579;SDS011;276;48.392;9.950;2022-11-06T16:04:22;10.30;;;9.40;;
579;SDS011;276;48.392;9.950;2022-11-06T16:06:51;9.33;;;8.60;;
579;SDS011;276;48.392;9.950;2022-11-06T16:09:20;11.27;;;10.27;;
579;SDS011;276;48.392;9.950;2022-11-06T16:11:49;10.10;;;9.07;;
579;SDS011;276;48.392;9.950;2022-11-06T16:14:19;10.17;;;9.27;;
579;SDS011;276;48.392;9.950;2022-11-06T16:16:52;10.43;;;9.53;;
579;SDS011;276;48.392;9.950;2022-11-06T16:19:25;11.57;;;10.60;;
579;SDS011;276;48.392;9.950;2022-11-06T16:21:59;10.63;;;9.73;;
579;SDS011;276;48.392;9.950;2022-11-06T16:24:27;9.30;;;8.53;;
579;SDS011;276;48.392;9.950;2022-11-06T16:26:58;12.93;;;11.93;;
579;SDS011;276;48.392;9.950;2022-11-06T16:29:29;12.50;;;11.40;;
579;SDS011;276;48.392;9.950;2022-11-06T16:32:37;10.40;;;9.60;;
579;SDS011;276;48.392;9.950;2022-11-06T16:34:50;10.30;;;9.60;;
579;SDS011;276;48.392;9.950;2022-11-06T16:39:48;10.33;;;9.53;;
579;SDS011;276;48.392;9.950;2022-11-06T16:44:49;8.80;;;8.13;;
579;SDS011;276;48.392;9.950;2022-11-06T16:47:25;9.80;;;9.00;;
579;SDS011;276;48.392;9.950;2022-11-06T16:49:51;9.93;;;9.13;;
579;SDS011;276;48.392;9.950;2022-11-06T16:54:50;10.37;;;9.57;;
579;SDS011;276;48.392;9.950;2022-11-06T16:57:22;11.70;;;10.60;;
579;SDS011;276;48.392;9.950;2022-11-06T16:59:56;10.60;;;9.70;;
579;SDS011;276;48.392;9.950;2022-11-06T17:02:27;11.30;;;10.40;;
579;SDS011;276;48.392;9.950;2022-11-06T17:05:05;11.37;;;10.47;;
579;SDS011;276;48.392;9.950;2022-11-06T17:07:33;10.83;;;9.87;;
579;SDS011;276;48.392;9.950;2022-11-06T17:12:50;10.23;;;9.53;;
579;SDS011;276;48.392;9.950;2022-11-06T17:15:18;11.37;;;10.47;;
579;SDS011;276;48.392;9.950;2022-11-06T17:17:43;12.67;;;11.77;;
579;SDS011;276;48.392;9.950;2022-11-06T17:20:14;13.00;;;11.90;;
579;SDS011;276;48.392;9.950;2022-11-06T17:22:42;13.80;;;12.60;;
579;SDS011;276;48.392;9.950;2022-11-06T17:25:08;13.70;;;12.50;;
579;SDS011;276;48.392;9.950;2022-11-06T17:27:34;15.27;;;13.93;;
579;SDS011;276;48.392;9.950;2022-11-06T17:29:59;16.87;;;15.27;;
579;SDS011;276;48.392;9.950;2022-11-06T17:32:25;16.07;;;14.57;;
579;SDS011;276;48.392;9.950;2022-11-06T17:34:53;14.23;;;13.00;;
579;SDS011;276;48.392;9.950;2022-11-06T17:37:18;14.10;;;13.00;;
579;SDS011;276;48.392;9.950;2022-11-06T17:39:48;16.33;;;14.93;;
579;SDS011;276;48.392;9.950;2022-11-06T17:42:17;15.97;;;14.53;;
579;SDS011;276;48.392;9.950;2022-11-06T17:44:42;14.20;;;13.00;;
579;SDS011;276;48.392;9.950;2022-11-06T17:47:08;15.43;;;14.03;;
579;SDS011;276;48.392;9.950;2022-11-06T17:49:35;15.23;;;13.83;;
579;SDS011;276;48.392;9.950;2022-11-06T17:52:01;15.57;;;14.27;;
579;SDS011;276;48.392;9.950;2022-11-06T17:54:28;13.73;;;12.53;;
579;SDS011;276;48.392;9.950;2022-11-06T17:57:03;15.30;;;13.93;;
579;SDS011;276;48.392;9.950;2022-11-06T17:59:30;10.80;;;9.90;;
579;SDS011;276;48.392;9.950;2022-11-06T18:01:57;12.80;;;11.73;;
579;SDS011;276;48.392;9.950;2022-11-06T18:04:24;14.43;;;13.13;;
579;SDS011;276;48.392;9.950;2022-11-06T18:06:51;15.90;;;14.30;;
579;SDS011;276;48.392;9.950;2022-11-06T18:09:21;13.73;;;12.53;;
579;SDS011;276;48.392;9.950;2022-11-06T18:11:53;11.67;;;10.67;;
579;SDS011;276;48.392;9.950;2022-11-06T18:14:22;11.83;;;10.80;;
579;SDS011;276;48.392;9.950;2022-11-06T18:16:51;14.93;;;13.67;;
579;SDS011;276;48.392;9.950;2022-11-06T18:19:18;14.07;;;13.00;;
579;SDS011;276;48.392;9.950;2022-11-06T18:21:46;14.33;;;13.23;;
579;SDS011;276;48.392;9.950;2022-11-06T18:24:15;14.00;;;12.90;;
579;SDS011;276;48.392;9.950;2022-11-06T18:26:40;14.00;;;12.70;;
579;SDS011;276;48.392;9.950;2022-11-06T18:29:06;11.87;;;10.87;;
579;SDS011;276;48.392;9.950;2022-11-06T18:31:36;13.07;;;11.87;;
579;SDS011;276;48.392;9.950;2022-11-06T18:34:08;13.03;;;11.97;;
579;SDS011;276;48.392;9.950;2022-11-06T18:36:38;13.00;;;11.90;;
579;SDS011;276;48.392;9.950;2022-11-06T18:39:05;12.10;;;11.10;;
579;SDS011;276;48.392;9.950;2022-11-06T18:41:33;12.10;;;11.13;;
579;SDS011;276;48.392;9.950;2022-11-06T18:44:01;12.37;;;11.40;;
579;SDS011;276;48.392;9.950;2022-11-06T18:46:29;11.00;;;10.10;;
579;SDS011;276;48.392;9.950;2022-11-06T18:48:56;11.03;;;10.13;;
579;SDS011;276;48.392;9.950;2022-11-06T18:51:26;11.97;;;10.97;;
579;SDS011;276;48.392;9.950;2022-11-06T18:53:55;12.20;;;11.10;;
579;SDS011;276;48.392;9.950;2022-11-06T18:56:22;12.87;;;11.73;;
579;SDS011;276;48.392;9.950;2022-11-06T18:58:48;12.80;;;11.80;;
579;SDS011;276;48.392;9.950;2022-11-06T19:01:16;15.33;;;14.03;;
579;SDS011;276;48.392;9.950;2022-11-06T19:03:46;17.20;;;15.57;;
579;SDS011;276;48.392;9.950;2022-11-06T19:06:13;16.73;;;15.23;;
579;SDS011;276;48.392;9.950;2022-11-06T19:08:40;18.10;;;16.37;;
579;SDS011;276;48.392;9.950;2022-11-06T19:11:08;18.77;;;17.13;;
579;SDS011;276;48.392;9.950;2022-11-06T19:13:34;16.27;;;14.90;;